Time;durP1;ratioP1;P1;durP2;ratioP2;P2;SDS_P1;SDS_P2;PMS_P1;PMS_P2;Temp;Humidity;BMP_temperature;BMP_pressure;BME280_temperature;BME280_humidity;BME280_pressure;Samples;Min_cycle;Max_cycle;Signal;HPM_P1;HPM_P2
2022/04/01 00:01:14;;;;;;;15.90;9.00;;;;;;;3.80;40.76;98820.31;130578;1268;98458;-76
2022/04/01 00:04:17;;;;;;;11.40;5.80;;;;;;;3.77;40.70;98817.42;130468;1268;99172;-75
2022/04/01 00:07:20;;;;;;;7.70;4.30;;;;;;;3.74;41.03;98815.25;130535;1266;97953;-77
2022/04/01 00:10:22;;;;;;;26.60;15.50;;;;;;;3.71;41.04;98813.04;130445;1267;99210;-75
2022/04/01 00:13:25;;;;;;;9.30;4.50;;;;;;;3.71;41.13;98811.90;130549;1267;97956;-73
2022/04/01 00:16:28;;;;;;;12.00;5.10;;;;;;;3.68;41.17;98803.33;130645;1266;99065;-73
2022/04/01 00:19:31;;;;;;;7.50;3.50;;;;;;;3.66;41.19;98808.84;130379;1268;98041;-75
2022/04/01 00:22:33;;;;;;;7.00;3.80;;;;;;;3.63;41.28;98807.02;130280;1267;224306;-75
2022/04/01 00:25:39;;;;;;;14.90;9.50;;;;;;;3.63;41.35;98803.35;130633;1268;98011;-74
2022/04/01 00:28:42;;;;;;;8.20;3.80;;;;;;;3.61;41.44;98802.23;130568;1268;99206;-75
2022/04/01 00:31:45;;;;;;;4.00;2.90;;;;;;;3.58;41.62;98798.64;130617;1268;98813;-74
2022/04/01 00:34:49;;;;;;;12.30;7.10;;;;;;;3.53;41.76;98794.14;130377;1268;98129;-75
2022/04/01 00:37:52;;;;;;;13.10;8.70;;;;;;;3.52;41.82;98791.98;130694;1267;99138;-75
2022/04/01 00:40:54;;;;;;;14.30;9.90;;;;;;;3.50;42.04;98794.13;130573;1268;98037;-74
2022/04/01 00:44:14;;;;;;;7.50;4.00;;;;;;;3.47;42.19;98792.24;130568;1267;99143;-75
2022/04/01 00:47:16;;;;;;;6.70;3.80;;;;;;;3.45;42.22;98791.09;130461;1267;97991;-73
2022/04/01 00:50:19;;;;;;;4.40;2.90;;;;;;;3.42;42.25;98786.45;130596;1267;97982;-71
2022/04/01 00:53:22;;;;;;;5.80;4.00;;;;;;;3.39;42.15;98787.07;130387;1267;97980;-73
2022/04/01 00:56:30;;;;;;;5.90;3.50;;;;;;;3.38;42.43;98783.13;130444;1267;99164;-73
2022/04/01 00:59:33;;;;;;;6.00;3.60;;;;;;;3.33;42.76;98787.26;130453;1266;98043;-74
2022/04/01 01:02:36;;;;;;;5.10;3.50;;;;;;;3.27;42.85;98784.96;130482;1268;98657;-75
2022/04/01 01:05:38;;;;;;;4.50;2.80;;;;;;;3.25;43.11;98787.83;130453;1267;97959;-75
2022/04/01 01:08:41;;;;;;;4.60;3.20;;;;;;;3.21;43.60;98785.56;130399;1267;99137;-75
2022/04/01 01:11:45;;;;;;;7.30;3.70;;;;;;;3.16;43.68;98781.27;130458;1268;98013;-74
2022/04/01 01:14:48;;;;;;;7.90;4.80;;;;;;;3.15;44.05;98779.96;130484;1266;99068;-74
2022/04/01 01:17:51;;;;;;;9.10;5.60;;;;;;;3.10;43.99;98778.27;130483;1268;99138;-74
2022/04/01 01:20:54;;;;;;;17.40;10.60;;;;;;;3.06;43.90;98776.01;130466;1267;97981;-75
2022/04/01 01:24:00;;;;;;;11.60;6.70;;;;;;;3.05;43.88;98773.48;130599;1267;98480;-73
2022/04/01 01:27:06;;;;;;;6.70;3.20;;;;;;;3.02;44.56;98772.89;130502;1268;97956;-73
2022/04/01 01:30:10;;;;;;;12.90;9.30;;;;;;;2.99;44.30;98771.45;130615;1267;99066;-75
2022/04/01 01:33:14;;;;;;;10.30;5.00;;;;;;;2.98;44.20;98767.63;130522;1268;98652;-74
2022/04/01 01:36:17;;;;;;;9.80;4.70;;;;;;;2.99;44.01;98768.45;130469;1268;98044;-73
2022/04/01 01:39:21;;;;;;;5.20;3.10;;;;;;;2.99;44.41;98765.34;130465;1266;97983;-74
2022/04/01 01:42:24;;;;;;;4.00;2.70;;;;;;;2.96;44.65;98768.69;130448;1268;98346;-74
2022/04/01 01:45:29;;;;;;;3.90;2.50;;;;;;;2.91;44.60;98758.08;130332;1266;99143;-73
2022/04/01 01:48:32;;;;;;;4.30;2.60;;;;;;;2.89;44.36;98761.10;130507;1268;98004;-75
2022/04/01 01:55:00;;;;;;;6.00;2.70;;;;;;;2.82;44.95;98751.91;130317;1267;98729;-74
2022/04/01 01:58:03;;;;;;;5.40;2.90;;;;;;;2.82;44.86;98750.91;130494;1267;99169;-74
2022/04/01 02:01:07;;;;;;;4.80;2.80;;;;;;;2.82;44.94;98742.06;130686;1268;98004;-74
2022/04/01 02:04:11;;;;;;;3.90;2.60;;;;;;;2.83;45.27;98739.23;130554;1268;98090;-72
2022/04/01 02:07:14;;;;;;;7.90;2.50;;;;;;;2.76;45.39;98747.70;130600;1268;98040;-74
2022/04/01 02:10:18;;;;;;;5.00;2.70;;;;;;;2.71;45.70;98744.25;130640;1268;97956;-73
2022/04/01 02:13:21;;;;;;;8.70;3.00;;;;;;;2.64;45.61;98742.48;130506;1268;99424;-74
2022/04/01 02:16:24;;;;;;;4.40;2.70;;;;;;;2.65;46.10;98743.50;130645;1266;98753;-71
2022/04/01 02:19:27;;;;;;;5.90;2.60;;;;;;;2.64;45.65;98742.53;130386;1268;98319;-74
2022/04/01 02:22:30;;;;;;;3.70;2.60;;;;;;;2.60;45.89;98738.50;130353;1268;99059;-73
2022/04/01 02:25:33;;;;;;;4.00;2.80;;;;;;;2.57;46.04;98734.91;130575;1267;99174;-73
2022/04/01 02:28:35;;;;;;;9.30;3.30;;;;;;;2.56;45.85;98734.96;130552;1268;98064;-72
2022/04/01 02:31:38;;;;;;;7.10;3.00;;;;;;;2.57;46.55;98741.05;130564;1268;99180;-72
2022/04/01 02:35:00;;;;;;;6.00;3.00;;;;;;;2.39;48.09;98743.50;130600;1268;97965;-74
2022/04/01 02:38:04;;;;;;;9.10;3.90;;;;;;;2.24;48.10;98741.38;130602;1268;98025;-75
2022/04/01 02:41:11;;;;;;;6.00;3.00;;;;;;;2.17;48.00;98733.21;130403;1268;98003;-73
2022/04/01 02:44:15;;;;;;;5.30;3.20;;;;;;;2.15;47.96;98729.83;130334;1268;98652;-74
2022/04/01 02:47:17;;;;;;;5.20;2.70;;;;;;;2.08;49.05;98735.02;130347;1267;99047;-74
2022/04/01 02:50:21;;;;;;;4.90;2.90;;;;;;;2.02;48.92;98731.20;130510;1268;98058;-73
2022/04/01 02:53:25;;;;;;;5.30;2.90;;;;;;;1.96;49.31;98729.12;130470;1267;97959;-72
2022/04/01 02:56:27;;;;;;;6.50;2.80;;;;;;;1.90;50.38;98734.89;130453;1266;99183;-73
2022/04/01 02:59:30;;;;;;;5.20;2.80;;;;;;;1.79;51.04;98732.15;130314;1268;98060;-71
2022/04/01 03:02:34;;;;;;;5.50;3.10;;;;;;;1.70;51.31;98728.52;130640;1268;97952;-72
2022/04/01 03:05:38;;;;;;;5.50;3.20;;;;;;;1.63;51.56;98724.60;130418;1268;98844;-74
2022/04/01 03:08:43;;;;;;;5.20;3.00;;;;;;;1.52;52.72;98725.38;130659;1268;97985;-75
2022/04/01 03:11:46;;;;;;;6.80;3.50;;;;;;;1.40;54.64;98723.77;130511;1265;97983;-74
2022/04/01 03:15:07;;;;;;;9.30;4.90;;;;;;;1.25;54.01;98724.91;130471;1268;97992;-76
2022/04/01 03:18:09;;;;;;;7.70;5.00;;;;;;;1.17;55.01;98723.67;130530;1267;99206;-72
2022/04/01 03:21:17;;;;;;;9.50;5.30;;;;;;;1.11;54.45;98723.33;130353;1268;97965;-71
2022/04/01 03:24:21;;;;;;;11.50;4.80;;;;;;;1.09;54.33;98725.41;130534;1268;97958;-72
2022/04/01 03:27:24;;;;;;;7.00;4.30;;;;;;;1.02;54.15;98723.21;130455;1268;97960;-72
2022/04/01 03:30:28;;;;;;;5.70;3.50;;;;;;;0.98;54.42;98716.85;130526;1268;97962;-73
2022/04/01 03:33:32;;;;;;;4.90;3.50;;;;;;;0.94;55.88;98725.80;130524;1268;98048;-73
2022/04/01 03:36:35;;;;;;;8.70;3.60;;;;;;;0.83;54.39;98719.17;130387;1268;99146;-72
2022/04/01 03:39:38;;;;;;;5.70;3.70;;;;;;;0.81;54.06;98719.52;130466;1267;97988;-72
2022/04/01 03:42:42;;;;;;;5.80;3.60;;;;;;;0.83;55.20;98714.29;130357;1267;98065;-73
2022/04/01 03:45:48;;;;;;;6.00;3.80;;;;;;;0.86;54.56;98717.60;130496;1268;99054;-71
2022/04/01 03:49:02;;;;;;;6.30;3.40;;;;;;;0.86;54.70;98717.02;130397;1267;99152;-73
2022/04/01 03:52:07;;;;;;;6.10;3.30;;;;;;;0.84;54.40;98717.17;130518;1268;98053;-72
2022/04/01 03:55:10;;;;;;;6.80;3.60;;;;;;;0.86;54.66;98714.22;130423;1268;98022;-72
2022/04/01 03:58:34;;;;;;;8.20;3.20;;;;;;;0.85;55.38;98709.76;130490;1268;97969;-71
2022/04/01 04:02:03;;;;;;;5.40;3.10;;;;;;;0.79;55.29;98715.28;130482;1267;97978;-73
2022/04/01 04:05:09;;;;;;;5.70;3.50;;;;;;;0.78;54.52;98718.16;130423;1268;97969;-72
2022/04/01 04:08:12;;;;;;;6.10;3.10;;;;;;;0.81;55.08;98727.77;130698;1268;97975;-73
2022/04/01 04:11:18;;;;;;;6.30;3.50;;;;;;;0.81;55.32;98727.05;130623;1268;99182;-73
2022/04/01 04:14:32;;;;;;;4.20;2.90;;;;;;;0.81;55.29;98730.06;130618;1268;97960;-72
2022/04/01 04:17:44;;;;;;;7.00;3.30;;;;;;;0.78;55.63;98727.80;130544;1266;98004;-72
2022/04/01 04:21:04;;;;;;;6.80;3.80;;;;;;;0.79;54.86;98732.11;130455;1268;97966;-72
2022/04/01 04:24:18;;;;;;;5.70;3.40;;;;;;;0.78;57.15;98736.20;130592;1266;98069;-72
2022/04/01 04:27:25;;;;;;;;;;;;;;;0.71;55.95;98736.10;130386;1268;98000;-72
2022/04/01 04:30:33;;;;;;;5.60;3.00;;;;;;;0.72;56.53;98732.88;130426;1268;98054;-73
2022/04/01 04:34:10;;;;;;;5.70;3.40;;;;;;;0.70;57.74;98734.79;130406;1268;98073;-73
2022/04/01 04:37:20;;;;;;;5.00;2.80;;;;;;;0.61;57.05;98738.87;130634;1268;97987;-71
2022/04/01 04:40:26;;;;;;;10.70;3.30;;;;;;;0.59;57.65;98737.98;130625;1267;98841;-72
2022/04/01 04:43:41;;;;;;;5.40;3.10;;;;;;;0.62;57.27;98743.35;130316;1268;98766;-72
2022/04/01 04:46:46;;;;;;;4.80;2.80;;;;;;;0.68;57.61;98745.25;130313;1268;98001;-71
2022/04/01 04:49:51;;;;;;;5.60;2.80;;;;;;;0.73;58.34;98737.30;130284;1267;98007;-72
2022/04/01 04:52:55;;;;;;;4.70;2.90;;;;;;;0.79;57.83;98739.46;130379;1268;98081;-71
2022/04/01 04:55:59;;;;;;;5.00;2.90;;;;;;;0.83;58.30;98745.82;130480;1268;99076;-74
2022/04/01 04:59:07;;;;;;;5.40;3.00;;;;;;;0.85;57.34;98745.84;130354;1268;97929;-72
2022/04/01 05:02:16;;;;;;;6.20;3.20;;;;;;;0.88;60.28;98751.19;130500;1268;97972;-72
2022/04/01 05:05:27;;;;;;;5.70;3.20;;;;;;;0.78;58.64;98750.73;130697;1268;98048;-74
2022/04/01 05:08:59;;;;;;;6.10;3.10;;;;;;;0.80;58.42;98749.44;130359;1268;98950;-71
2022/04/01 05:12:11;;;;;;;6.70;3.40;;;;;;;0.78;58.15;98755.10;130476;1268;99044;-71
2022/04/01 05:15:51;;;;;;;6.40;3.10;;;;;;;0.76;59.90;98762.61;130233;1268;98874;-72
2022/04/01 05:19:04;;;;;;;6.40;3.30;;;;;;;0.64;60.49;98760.89;130413;1268;97982;-70
2022/04/01 05:22:10;;;;;;;5.30;3.20;;;;;;;0.48;62.35;98765.64;130354;1268;98612;-72
2022/04/01 05:25:27;;;;;;;7.70;3.50;;;;;;;0.38;61.76;98763.09;130478;1268;97965;-72
2022/04/01 05:28:45;;;;;;;6.00;3.10;;;;;;;0.36;62.31;98762.73;130372;1268;121286;-71
2022/04/01 05:31:55;;;;;;;8.20;3.10;;;;;;;0.38;62.42;98761.17;130340;1268;98632;-71
2022/04/01 05:35:00;;;;;;;5.50;2.80;;;;;;;0.50;61.04;98763.21;130457;1267;97988;-71
2022/04/01 05:38:07;;;;;;;6.10;2.70;;;;;;;0.57;62.58;98766.70;130480;1268;97957;-72
2022/04/01 05:41:11;;;;;;;5.00;3.10;;;;;;;0.47;62.78;98763.65;130308;1268;98569;-70
2022/04/01 05:44:13;;;;;;;6.30;3.20;;;;;;;0.43;63.23;98762.23;130118;1268;99170;-71
2022/04/01 05:47:24;;;;;;;5.40;3.10;;;;;;;0.35;63.46;98762.15;130419;1268;97975;-71
2022/04/01 05:50:28;;;;;;;5.60;3.40;;;;;;;0.27;65.08;98769.66;130417;1268;98760;-71
2022/04/01 05:53:32;;;;;;;5.80;3.30;;;;;;;0.21;65.67;98772.42;130495;1268;99035;-71
2022/04/01 05:56:38;;;;;;;9.50;3.80;;;;;;;0.13;64.61;98766.91;130153;1268;98840;-71
2022/04/01 05:59:41;;;;;;;6.40;3.40;;;;;;;0.11;64.83;98764.28;130089;1268;98763;-73
2022/04/01 06:03:20;;;;;;;7.00;3.60;;;;;;;0.16;64.00;98765.63;130521;1268;99040;-72
2022/04/01 06:06:31;;;;;;;6.20;3.10;;;;;;;0.33;64.13;98770.91;130464;1268;98790;-71
2022/04/01 06:09:43;;;;;;;4.90;2.90;;;;;;;0.36;63.97;98772.04;130475;1268;98712;-71
2022/04/01 06:13:03;;;;;;;5.70;3.10;;;;;;;0.44;63.41;98771.77;130439;1267;98427;-72
2022/04/01 06:16:28;;;;;;;4.90;3.00;;;;;;;0.52;63.31;98770.21;130556;1268;98065;-71
2022/04/01 06:20:07;;;;;;;6.20;3.70;;;;;;;0.52;63.63;98767.60;130352;1268;98086;-71
2022/04/01 06:23:19;;;;;;;7.10;4.00;;;;;;;0.55;62.92;98764.22;130364;1268;99165;-71
2022/04/01 06:26:25;;;;;;;7.20;3.50;;;;;;;0.64;62.90;98766.97;130532;1267;99131;-72
2022/04/01 06:29:35;;;;;;;7.50;3.90;;;;;;;0.71;62.99;98763.07;130498;1268;99172;-71
2022/04/01 06:33:00;;;;;;;7.50;3.80;;;;;;;0.75;63.90;98762.88;130355;1268;97963;-72
2022/04/01 06:36:16;;;;;;;6.40;3.50;;;;;;;0.70;65.14;98772.58;130171;1268;98643;-71
2022/04/01 06:39:27;;;;;;;9.00;3.80;;;;;;;0.73;64.57;98762.36;130365;1267;98096;-71
2022/04/01 06:42:34;;;;;;;6.60;3.40;;;;;;;0.77;64.59;98765.35;130429;1268;99175;-72
2022/04/01 06:46:05;;;;;;;5.60;3.60;;;;;;;0.83;63.76;98769.64;130347;1268;99125;-72
2022/04/01 06:49:08;;;;;;;6.60;3.40;;;;;;;0.91;64.20;98768.64;130492;1267;97991;-71
2022/04/01 06:52:21;;;;;;;7.30;3.70;;;;;;;0.87;64.38;98777.83;130435;1268;98778;-70
2022/04/01 06:55:24;;;;;;;5.60;3.20;;;;;;;0.85;63.94;98774.14;130468;1268;97966;-71
2022/04/01 06:58:33;;;;;;;6.00;3.70;;;;;;;0.77;64.58;98769.77;130542;1267;99116;-71
2022/04/01 07:01:41;;;;;;;5.60;3.20;;;;;;;0.74;64.22;98776.47;130387;1268;99088;-71
2022/04/01 07:04:43;;;;;;;7.90;3.50;;;;;;;0.75;64.93;98782.69;130441;1268;98053;-73
2022/04/01 07:07:46;;;;;;;12.10;6.30;;;;;;;0.77;64.31;98775.33;130406;1268;99152;-72
2022/04/01 07:10:49;;;;;;;15.20;7.90;;;;;;;0.83;64.62;98771.72;130200;1268;98090;-71
2022/04/01 07:13:53;;;;;;;13.70;7.00;;;;;;;0.87;64.02;98765.80;130577;1268;99037;-71
2022/04/01 07:16:56;;;;;;;8.30;4.20;;;;;;;1.04;64.40;98765.77;130539;1268;97998;-72
2022/04/01 07:19:59;;;;;;;13.10;5.60;;;;;;;1.13;64.26;98759.33;130590;1268;98855;-72
2022/04/01 07:23:03;;;;;;;12.30;5.40;;;;;;;1.24;64.11;98766.69;130227;1267;98393;-71
2022/04/01 07:26:06;;;;;;;7.40;4.30;;;;;;;1.26;63.75;98762.55;130506;1267;98765;-72
2022/04/01 07:29:08;;;;;;;7.60;4.00;;;;;;;1.32;64.48;98758.48;130610;1268;98029;-71
2022/04/01 07:32:30;;;;;;;8.40;4.10;;;;;;;1.17;65.19;98766.71;130452;1268;99169;-72
2022/04/01 07:35:34;;;;;;;8.00;4.10;;;;;;;1.17;64.88;98763.27;130572;1268;99179;-71
2022/04/01 07:38:39;;;;;;;6.20;3.60;;;;;;;1.21;64.78;98766.39;130546;1267;97975;-71
2022/04/01 07:41:42;;;;;;;7.10;3.50;;;;;;;1.11;65.11;98762.55;130463;1268;99143;-71
2022/04/01 07:44:46;;;;;;;8.60;4.20;;;;;;;1.04;65.04;98758.77;130471;1268;98460;-70
2022/04/01 07:47:51;;;;;;;8.00;3.90;;;;;;;1.00;65.43;98753.61;130199;1268;98730;-71
2022/04/01 07:50:54;;;;;;;6.50;3.30;;;;;;;1.05;65.76;98758.01;130630;1268;97949;-71
2022/04/01 07:53:56;;;;;;;8.90;4.80;;;;;;;1.17;64.87;98756.59;130363;1268;99093;-72
2022/04/01 07:56:59;;;;;;;6.10;4.20;;;;;;;1.31;65.40;98760.50;130433;1267;99213;-72
2022/04/01 08:00:03;;;;;;;12.30;7.50;;;;;;;1.30;65.39;98763.89;130310;1268;98049;-71
2022/04/01 08:03:15;;;;;;;6.70;3.70;;;;;;;1.17;67.06;98764.14;130540;1268;97981;-72
2022/04/01 08:06:18;;;;;;;5.20;3.00;;;;;;;1.16;66.43;98761.20;130605;1268;99146;-72
2022/04/01 08:09:21;;;;;;;5.50;3.40;;;;;;;1.15;66.36;98766.86;130477;1268;98846;-72
2022/04/01 08:12:24;;;;;;;8.90;3.30;;;;;;;1.17;65.78;98768.31;130478;1268;99187;-72
2022/04/01 08:15:27;;;;;;;7.70;3.40;;;;;;;1.16;65.94;98762.97;130529;1268;97971;-70
2022/04/01 08:18:29;;;;;;;5.80;3.30;;;;;;;1.14;65.92;98763.17;130601;1268;99124;-72
2022/04/01 08:21:32;;;;;;;6.80;3.40;;;;;;;1.22;66.49;98762.14;130677;1266;98766;-72
2022/04/01 08:24:36;;;;;;;5.20;3.10;;;;;;;1.31;66.86;98762.93;130487;1266;98741;-71
2022/04/01 08:27:38;;;;;;;7.30;4.00;;;;;;;1.37;66.80;98767.14;130483;1268;98406;-72
2022/04/01 08:30:41;;;;;;;8.60;4.30;;;;;;;1.47;65.96;98767.34;130470;1268;98451;-71
2022/04/01 08:33:45;;;;;;;6.40;3.60;;;;;;;1.56;66.56;98764.30;130463;1266;97979;-72
2022/04/01 08:36:48;;;;;;;7.80;3.70;;;;;;;1.65;66.57;98760.40;130604;1267;98741;-71
2022/04/01 08:39:53;;;;;;;3.90;2.80;;;;;;;1.65;67.01;98759.64;130253;1268;97958;-72
2022/04/01 08:42:55;;;;;;;7.80;3.40;;;;;;;1.57;67.02;98762.48;130523;1267;98026;-72
2022/04/01 08:46:00;;;;;;;7.00;4.10;;;;;;;1.57;66.94;98762.27;130559;1268;98043;-72
2022/04/01 08:49:03;;;;;;;9.00;4.20;;;;;;;1.53;68.06;98763.84;130488;1268;99051;-71
2022/04/01 08:52:07;;;;;;;8.20;4.40;;;;;;;1.52;67.66;98764.85;130542;1267;98045;-72
2022/04/01 08:55:12;;;;;;;11.20;5.30;;;;;;;1.68;66.73;98771.20;130437;1267;99383;-71
2022/04/01 08:58:17;;;;;;;7.10;3.90;;;;;;;1.79;66.50;98773.31;130705;1268;98081;-71
2022/04/01 09:01:20;;;;;;;7.40;4.50;;;;;;;1.86;66.25;98774.49;130628;1268;97969;-71
2022/04/01 09:04:24;;;;;;;8.00;4.60;;;;;;;1.95;66.13;98769.87;130238;1268;99170;-72
2022/04/01 09:07:27;;;;;;;7.30;4.50;;;;;;;1.93;66.93;98771.63;130250;1268;97982;-71
2022/04/01 09:10:30;;;;;;;6.80;4.00;;;;;;;1.86;67.46;98766.05;130510;1268;97983;-73
2022/04/01 09:13:34;;;;;;;6.20;3.70;;;;;;;1.83;66.80;98763.93;130498;1266;98900;-71
2022/04/01 09:16:41;;;;;;;8.60;4.80;;;;;;;1.74;67.87;98765.77;130425;1267;97955;-71
2022/04/01 09:19:44;;;;;;;5.90;4.10;;;;;;;1.65;67.95;98764.58;130396;1266;97992;-70
2022/04/01 09:22:46;;;;;;;9.00;3.90;;;;;;;1.60;67.38;98774.27;130252;1266;98878;-72
2022/04/01 09:25:51;;;;;;;7.10;4.00;;;;;;;1.54;67.62;98776.35;130454;1268;97981;-72
2022/04/01 09:28:54;;;;;;;8.20;3.80;;;;;;;1.58;67.13;98767.10;130627;1268;99181;-72
2022/04/01 09:32:06;;;;;;;7.90;3.70;;;;;;;1.70;66.87;98766.81;130509;1267;99193;-71
2022/04/01 09:35:10;;;;;;;6.90;3.60;;;;;;;1.73;67.52;98763.52;130593;1268;97976;-72
2022/04/01 09:38:13;;;;;;;5.50;3.50;;;;;;;1.65;68.06;98758.45;130494;1266;99181;-72
2022/04/01 09:41:19;;;;;;;8.00;4.30;;;;;;;1.60;67.78;98762.26;130514;1268;98032;-71
2022/04/01 09:44:24;;;;;;;10.40;5.40;;;;;;;1.64;67.89;98765.53;130555;1268;98635;-71
2022/04/01 09:47:26;;;;;;;8.30;4.20;;;;;;;1.63;67.76;98764.12;130457;1268;99141;-71
2022/04/01 09:50:31;;;;;;;8.00;4.10;;;;;;;1.62;67.73;98764.52;130465;1267;98073;-71
2022/04/01 09:53:35;;;;;;;7.70;3.90;;;;;;;1.60;67.64;98764.69;130582;1268;99178;-73
2022/04/01 09:56:43;;;;;;;8.30;3.90;;;;;;;1.57;67.90;98764.19;130516;1268;99143;-71
2022/04/01 09:59:48;;;;;;;6.40;3.30;;;;;;;1.66;67.53;98768.90;130649;1267;99149;-71
2022/04/01 10:02:52;;;;;;;8.00;4.20;;;;;;;1.73;67.79;98774.54;130649;1268;98251;-73
2022/04/01 10:05:57;;;;;;;5.90;3.80;;;;;;;1.78;67.85;98772.58;130607;1268;97990;-71
2022/04/01 10:09:03;;;;;;;8.80;5.30;;;;;;;1.85;67.78;98776.67;131856;1266;98049;-72
2022/04/01 10:12:10;;;;;;;16.60;7.60;;;;;;;1.83;68.53;98771.46;130652;1266;99160;-73
2022/04/01 10:15:13;;;;;;;15.60;7.70;;;;;;;1.84;68.43;98767.81;130551;1268;98617;-71
2022/04/01 10:18:21;;;;;;;8.50;5.30;;;;;;;1.84;68.56;98766.95;130273;1268;98337;-72
2022/04/01 10:21:24;;;;;;;9.70;5.80;;;;;;;1.87;68.47;98769.55;130308;1267;97981;-72
2022/04/01 10:24:38;;;;;;;10.40;4.90;;;;;;;1.95;68.33;98765.69;130646;1268;98626;-71
2022/04/01 10:27:44;;;;;;;6.20;3.80;;;;;;;2.05;68.13;98766.21;130496;1267;99064;-71
2022/04/01 10:30:54;;;;;;;7.30;3.40;;;;;;;2.13;68.92;98773.59;130443;1268;97969;-71
2022/04/01 10:34:20;;;;;;;8.40;4.10;;;;;;;2.16;68.56;98762.96;130356;1268;97961;-71
2022/04/01 10:37:25;;;;;;;5.90;3.40;;;;;;;2.30;67.89;98762.17;130490;1268;98400;-71
2022/04/01 10:40:32;;;;;;;9.00;4.80;;;;;;;2.36;67.99;98760.58;130459;1268;97959;-71
2022/04/01 10:43:40;;;;;;;5.40;3.90;;;;;;;2.36;68.60;98763.58;130439;1268;97997;-72
2022/04/01 10:46:58;;;;;;;6.90;4.10;;;;;;;2.34;67.97;98761.15;130466;1268;97987;-71
2022/04/01 10:53:45;;;;;;;11.40;6.10;;;;;;;2.35;67.72;98769.42;130517;1268;98744;-71
2022/04/01 10:56:57;;;;;;;10.40;5.40;;;;;;;2.29;68.04;98774.36;130220;1270;97976;-71
2022/04/01 11:00:02;;;;;;;10.50;4.60;;;;;;;2.31;68.05;98776.83;130490;1268;98866;-72
2022/04/01 11:03:23;;;;;;;8.00;4.50;;;;;;;2.27;68.06;98771.80;130354;1268;99103;-71
2022/04/01 11:06:27;;;;;;;6.70;3.80;;;;;;;2.28;68.24;98773.99;130235;1268;98783;-71
2022/04/01 11:09:35;;;;;;;9.80;4.80;;;;;;;2.41;68.20;98766.50;130463;1268;97996;-72
2022/04/01 11:12:42;;;;;;;13.10;4.90;;;;;;;2.50;67.97;98769.20;130298;1268;98192;-71
2022/04/01 11:15:46;;;;;;;9.90;4.10;;;;;;;2.46;68.47;98777.27;130348;1268;98748;-71
2022/04/01 11:19:10;;;;;;;7.70;4.40;;;;;;;2.44;68.10;98775.21;130615;1268;98074;-71
2022/04/01 11:22:34;;;;;;;15.30;4.90;;;;;;;2.46;67.84;98777.30;130550;1268;99147;-72
2022/04/01 11:25:57;;;;;;;8.00;3.90;;;;;;;2.46;68.27;98777.95;130527;1268;98059;-70
2022/04/01 11:29:02;;;;;;;9.70;3.90;;;;;;;2.41;68.57;98774.45;130517;1267;98651;-71
2022/04/01 11:32:08;;;;;;;12.70;4.40;;;;;;;2.42;68.21;98774.48;130527;1268;97972;-71
2022/04/01 11:35:13;;;;;;;8.40;4.20;;;;;;;2.34;68.67;98773.81;130654;1268;98077;-71
2022/04/01 11:38:18;;;;;;;7.10;3.90;;;;;;;2.25;69.06;98775.50;130585;1268;100851;-71
2022/04/01 11:41:21;;;;;;;11.60;5.20;;;;;;;2.22;69.61;98772.02;130696;1268;99173;-70
2022/04/01 11:44:24;;;;;;;12.80;5.80;;;;;;;2.44;69.15;98765.36;130399;1267;99049;-70
2022/04/01 11:47:34;;;;;;;11.60;5.60;;;;;;;2.76;68.52;98768.77;130318;1268;97962;-70
2022/04/01 11:50:36;;;;;;;9.50;5.10;;;;;;;3.00;68.09;98755.69;130208;1268;97992;-72
2022/04/01 11:53:43;;;;;;;9.70;5.60;;;;;;;3.09;68.56;98755.58;130522;1268;97968;-71
2022/04/01 11:56:50;;;;;;;10.30;5.70;;;;;;;3.00;68.62;98746.73;130598;1268;97981;-71
2022/04/01 11:59:53;;;;;;;113.80;49.40;;;;;;;3.07;68.45;98746.45;130621;1268;98023;-71
2022/04/01 12:02:55;;;;;;;61.40;43.40;;;;;;;3.09;68.07;98749.55;130615;1268;98007;-72
2022/04/01 12:09:15;;;;;;;12.00;6.50;;;;;;;3.13;68.05;98752.38;130515;1266;98035;-71
2022/04/01 12:12:23;;;;;;;15.80;8.10;;;;;;;2.97;68.42;98752.69;130429;1267;98786;-72
2022/04/01 12:15:35;;;;;;;10.60;5.70;;;;;;;2.82;68.87;98757.40;130586;1268;99248;-70
2022/04/01 12:18:39;;;;;;;12.00;5.70;;;;;;;2.72;69.25;98760.16;130436;1268;99391;-69
2022/04/01 12:21:41;;;;;;;15.40;7.20;;;;;;;2.68;68.95;98762.48;130404;1267;97979;-71
2022/04/01 12:24:44;;;;;;;19.00;13.90;;;;;;;2.70;69.10;98768.78;130201;1268;262107;-71
2022/04/01 12:27:54;;;;;;;9.50;5.70;;;;;;;2.72;68.92;98770.56;130546;1268;99031;-71
2022/04/01 12:30:57;;;;;;;12.50;5.50;;;;;;;2.80;68.75;98763.14;130663;1268;97994;-72
2022/04/01 12:34:00;;;;;;;11.50;6.00;;;;;;;2.85;69.36;98769.20;130613;1268;98764;-71
2022/04/01 12:37:05;;;;;;;9.10;5.90;;;;;;;2.89;69.13;98763.05;130301;1268;97991;-72
2022/04/01 12:40:11;;;;;;;13.10;8.20;;;;;;;2.96;68.91;98760.82;130424;1268;99277;-71
2022/04/01 12:43:29;;;;;;;7.90;5.00;;;;;;;2.97;69.56;98766.53;130683;1268;98895;-71
2022/04/01 12:46:34;;;;;;;11.90;8.50;;;;;;;2.90;69.80;98765.73;130649;1268;98059;-71
2022/04/01 12:49:42;;;;;;;13.80;7.40;;;;;;;2.86;69.61;98771.17;130681;1267;98384;-71
2022/04/01 12:52:49;;;;;;;12.30;7.80;;;;;;;2.84;68.76;98762.11;130599;1268;99503;-71
2022/04/01 12:55:52;;;;;;;15.40;9.50;;;;;;;2.95;68.95;98760.73;130713;1268;97978;-71
2022/04/01 12:58:56;;;;;;;16.80;6.40;;;;;;;3.03;68.74;98756.27;130657;1268;98636;-70
2022/04/01 13:02:02;;;;;;;14.80;9.50;;;;;;;3.06;69.08;98757.99;130439;1268;99143;-70
2022/04/01 13:05:13;;;;;;;10.90;5.60;;;;;;;3.06;68.87;98759.73;130478;1268;98059;-71
2022/04/01 13:08:32;;;;;;;12.60;8.70;;;;;;;3.07;68.75;98755.25;130407;1268;98058;-70
2022/04/01 13:11:37;;;;;;;15.10;8.50;;;;;;;3.10;68.83;98755.53;130337;1268;98665;-70
2022/04/01 13:14:40;;;;;;;13.90;8.40;;;;;;;3.10;68.45;98753.53;130279;1267;99172;-70
2022/04/01 13:17:44;;;;;;;16.00;9.40;;;;;;;3.13;68.83;98756.42;130249;1268;98432;-72
2022/04/01 13:20:47;;;;;;;12.50;8.40;;;;;;;3.08;69.07;98758.79;130557;1268;97966;-72
2022/04/01 13:23:50;;;;;;;16.00;8.80;;;;;;;2.98;68.93;98763.61;130471;1267;99144;-71
2022/04/01 13:26:53;;;;;;;12.50;7.30;;;;;;;2.90;69.16;98767.17;130481;1267;98091;-72
2022/04/01 13:29:58;;;;;;;15.20;7.20;;;;;;;2.79;69.16;98768.16;130545;1268;99416;-71
2022/04/01 13:33:01;;;;;;;17.50;10.40;;;;;;;2.74;69.30;98765.06;130466;1267;97970;-72
2022/04/01 13:36:04;;;;;;;10.00;6.30;;;;;;;2.86;69.18;98767.35;130479;1267;99148;-71
2022/04/01 13:39:07;;;;;;;13.20;8.50;;;;;;;3.02;69.09;98758.67;130443;1268;99149;-70
2022/04/01 13:42:10;;;;;;;20.00;13.00;;;;;;;3.06;69.15;98763.21;130337;1268;98010;-72
2022/04/01 13:45:13;;;;;;;16.60;8.90;;;;;;;3.06;69.01;98764.66;130525;1268;98841;-71
2022/04/01 13:48:16;;;;;;;14.80;8.80;;;;;;;3.02;68.96;98759.56;130478;1268;98403;-71
2022/04/01 13:51:20;;;;;;;19.00;13.00;;;;;;;3.02;68.86;98761.67;130566;1268;99252;-71
2022/04/01 13:54:22;;;;;;;33.90;24.00;;;;;;;3.04;68.82;98763.91;130466;1268;99175;-70
2022/04/01 13:57:25;;;;;;;28.00;18.70;;;;;;;3.10;68.72;98765.70;130441;1268;98940;-71
2022/04/01 14:00:28;;;;;;;25.90;18.00;;;;;;;3.08;69.51;98763.70;130232;1268;98770;-71
2022/04/01 14:03:33;;;;;;;24.40;16.70;;;;;;;3.03;69.16;98759.84;130557;1268;97999;-73
2022/04/01 14:06:35;;;;;;;19.20;12.20;;;;;;;3.01;69.16;98759.15;130557;1268;97979;-72
2022/04/01 14:09:40;;;;;;;13.40;7.40;;;;;;;2.97;69.16;98764.39;130589;1266;97997;-71
2022/04/01 14:12:42;;;;;;;10.90;6.60;;;;;;;2.97;69.29;98760.20;130308;1268;97971;-71
2022/04/01 14:15:45;;;;;;;18.60;11.10;;;;;;;3.02;69.17;98763.08;130490;1268;97946;-71
2022/04/01 14:18:49;;;;;;;21.80;13.70;;;;;;;3.13;69.13;98769.83;130509;1268;99197;-72
2022/04/01 14:21:52;;;;;;;14.10;8.30;;;;;;;3.21;69.02;98772.39;130402;1267;97966;-72
2022/04/01 14:24:54;;;;;;;16.70;9.40;;;;;;;3.18;68.83;98776.52;130481;1268;98320;-71
2022/04/01 14:27:57;;;;;;;16.20;9.70;;;;;;;3.10;69.05;98772.02;130454;1267;97990;-72
2022/04/01 14:31:00;;;;;;;15.60;9.00;;;;;;;2.95;69.31;98783.37;130480;1268;99053;-71
2022/04/01 14:34:03;;;;;;;21.00;12.20;;;;;;;2.83;69.79;98784.52;130497;1268;99164;-71
2022/04/01 14:37:06;;;;;;;15.00;8.10;;;;;;;2.74;69.60;98789.31;130511;1268;98503;-70
2022/04/01 14:40:11;;;;;;;20.10;10.70;;;;;;;2.58;70.06;98789.37;130506;1268;98960;-74
2022/04/01 14:43:13;;;;;;;25.90;13.70;;;;;;;2.43;70.62;98790.56;130575;1268;102513;-72
2022/04/01 14:46:16;;;;;;;12.90;7.80;;;;;;;2.38;71.10;98786.59;130549;1268;98941;-72